Gillam, Canada
Current Conditions -  °F | °C
As of 2:00 AM on Wednesday 26 Nov 2014 (Local Time) from CYGX Reporting Station
Clear Clear  
Wind Chill: -40°   Ceiling: Unl
Heat Index: -20°   Visibility: 15mi
Dew Point: -26°   Wind: 9mph
Humidity: 76%   Direction: 290°WNW
Pressure: 30.23"   Gusts: NA
Location:  56.35°N, 94.71°W
Report Text: CYGX 260800Z 29008KT 15SM SKC M29/M32 A3023 RMK VIA CYWG SLP259
Loading
Personal Weather Stations






























Interactive Weather Map New forecast layout! Learn more

10-Day Weather Forecast

Advertisements
Track Severe Weather on mobile